createdAt,value
2019-02-14T00:07:47.036Z,79814.59
2019-02-14T00:10:17.464Z,79817.64
2019-02-14T00:12:47.866Z,79814.59
2019-02-14T00:15:18.244Z,79818.66
2019-02-14T00:17:48.800Z,79816.63
2019-02-14T00:20:19.270Z,79820.68
2019-02-14T00:25:31.246Z,79826.76
2019-02-14T00:30:56.594Z,79825.74
2019-02-14T00:33:27.174Z,79819.66
2019-02-14T00:35:57.558Z,79823.72
2019-02-14T00:38:27.948Z,79828.78
2019-02-14T00:40:58.299Z,79834.86
2019-02-14T00:43:31.029Z,79831.82
2019-02-14T00:46:01.694Z,79823.72
2019-02-14T00:48:32.081Z,79826.76
2019-02-14T00:51:21.788Z,79823.72
2019-02-14T00:53:52.165Z,79831.82
2019-02-14T00:56:22.513Z,79833.84
2019-02-14T00:59:17.824Z,79834.86
2019-02-14T01:01:48.436Z,79829.80
2019-02-14T01:07:25.946Z,79826.76
2019-02-14T01:12:58.540Z,79827.77
2019-02-14T01:18:25.462Z,79824.73
2019-02-14T01:21:22.037Z,79834.86
2019-02-14T01:26:55.259Z,79837.91
2019-02-14T01:32:09.160Z,79835.88
2019-02-14T01:37:34.014Z,79829.80
2019-02-14T01:42:48.240Z,79837.91
2019-02-14T01:45:18.723Z,79839.92
2019-02-14T01:53:54.793Z,79850.06
2019-02-14T02:02:18.021Z,79860.19
2019-02-14T02:04:48.428Z,79868.30
2019-02-14T02:07:40.347Z,79869.30
2019-02-14T02:10:12.086Z,79869.30
2019-02-14T02:12:42.533Z,79868.30
2019-02-14T02:15:31.816Z,79877.41
2019-02-14T02:18:02.509Z,79883.48
2019-02-14T02:24:04.801Z,79883.48
2019-02-14T02:26:55.753Z,79880.45
2019-02-14T02:29:45.070Z,79887.55
2019-02-14T02:35:19.455Z,79901.72
2019-02-14T02:37:50.065Z,79907.80
2019-02-14T02:40:21.684Z,79916.92
2019-02-14T02:45:54.365Z,79925.02
2019-02-14T02:48:24.788Z,79932.12
2019-02-14T02:51:14.069Z,79933.13
2019-02-14T02:53:44.547Z,79942.25
2019-02-14T02:56:52.881Z,79944.27
2019-02-14T02:59:23.253Z,79941.23
2019-02-14T03:04:49.963Z,79946.30
2019-02-14T03:07:20.419Z,79954.41
2019-02-14T03:19:11.573Z,79970.61
2019-02-14T03:31:26.427Z,79972.64
2019-02-14T03:33:56.960Z,79978.72
2019-02-14T03:36:47.859Z,79984.80
2019-02-14T03:39:18.265Z,79982.77
2019-02-14T03:42:26.745Z,79988.85
2019-02-14T03:44:57.401Z,79981.76
2019-02-14T03:47:27.822Z,79980.75
2019-02-14T03:49:58.696Z,79983.78
2019-02-14T03:55:31.505Z,79982.77
2019-02-14T03:58:01.891Z,79987.84
2019-02-14T04:03:44.838Z,79995.94
2019-02-14T04:06:35.747Z,79995.94
2019-02-14T04:09:47.033Z,79997.97
2019-02-14T04:12:28.352Z,80001.01
2019-02-14T04:15:17.797Z,79996.95
2019-02-14T04:21:11.007Z,79997.97
2019-02-14T04:23:41.418Z,79990.88
2019-02-14T04:26:32.282Z,79996.95
2019-02-14T04:29:02.740Z,80003.03
2019-02-14T04:34:39.296Z,80011.14
2019-02-14T04:37:09.722Z,80008.09
2019-02-14T04:39:40.626Z,80016.20
2019-02-14T04:42:30.685Z,80015.19
2019-02-14T04:45:12.423Z,80020.25
2019-02-14T04:50:23.318Z,80030.39
2019-02-14T04:56:07.859Z,80048.63
2019-02-14T04:58:57.295Z,80049.64
2019-02-14T05:04:31.353Z,80059.77
2019-02-14T05:07:20.613Z,80056.73
2019-02-14T05:12:57.641Z,80064.83
2019-02-14T05:15:47.322Z,80067.88
2019-02-14T05:27:06.038Z,80075.98
2019-02-14T05:29:36.484Z,80078.00
2019-02-14T05:35:40.923Z,80086.11
2019-02-14T05:41:16.233Z,80087.13
2019-02-14T05:43:47.339Z,80091.17
2019-02-14T05:46:17.720Z,80088.14
2019-02-14T05:51:50.441Z,80098.27
2019-02-14T05:54:40.668Z,80097.25
2019-02-14T05:57:11.426Z,80106.38
2019-02-14T06:00:02.370Z,80108.40
2019-02-14T06:02:32.967Z,80112.45
2019-02-14T06:11:04.046Z,80119.55
2019-02-14T06:16:18.047Z,80112.45
2019-02-14T06:21:37.930Z,80114.48
2019-02-14T06:24:08.485Z,80113.46
2019-02-14T06:29:42.242Z,80120.55
2019-02-14T06:37:56.847Z,80126.64
2019-02-14T06:40:27.286Z,80129.67
2019-02-14T06:45:44.302Z,80132.71
2019-02-14T06:50:56.845Z,80148.92
2019-02-14T06:53:46.228Z,80148.92
2019-02-14T06:59:20.718Z,80142.84
2019-02-14T07:01:51.408Z,80140.81
2019-02-14T07:07:45.914Z,80149.94
2019-02-14T07:10:16.703Z,80158.05
2019-02-14T07:12:47.265Z,80165.13
2019-02-14T07:15:17.783Z,80171.21
2019-02-14T07:20:51.036Z,80168.17
2019-02-14T07:32:36.419Z,80155.00
2019-02-14T07:35:27.708Z,80158.05
2019-02-14T07:38:09.547Z,80158.05
2019-02-14T07:40:51.326Z,80152.98
2019-02-14T07:55:12.463Z,80131.70
2019-02-14T07:57:54.690Z,80127.65
2019-02-14T08:00:25.196Z,80123.59
2019-02-14T08:03:16.911Z,80117.52
2019-02-14T08:06:07.983Z,80100.30
2019-02-14T08:08:59.117Z,80089.15
2019-02-14T08:11:32.814Z,80075.98
2019-02-14T08:14:04.242Z,80075.98
2019-02-14T08:19:49.001Z,80057.74
2019-02-14T08:23:05.249Z,80051.66
2019-02-14T08:34:17.799Z,80011.14
2019-02-14T08:39:52.857Z,79976.69
2019-02-14T08:45:35.186Z,79948.33
2019-02-14T08:54:22.685Z,79921.98
2019-02-14T08:56:53.374Z,79901.72
2019-02-14T08:59:45.249Z,79894.63
2019-02-14T09:05:18.310Z,79878.42
2019-02-14T09:10:52.275Z,79853.09
2019-02-14T09:13:43.306Z,79836.89
2019-02-14T09:16:32.696Z,79849.05
2019-02-14T09:19:04.064Z,79852.08
2019-02-14T09:21:53.504Z,79831.82
2019-02-14T09:24:24.106Z,79817.64
2019-02-14T09:27:07.912Z,79803.45
2019-02-14T09:32:44.071Z,79756.86
2019-02-14T09:35:14.756Z,79746.73
2019-02-14T09:37:45.402Z,79728.49
2019-02-14T09:40:35.253Z,79716.34
2019-02-14T09:49:05.041Z,79672.77
2019-02-14T09:51:47.748Z,79652.52
2019-02-14T09:57:22.993Z,79626.18
2019-02-14T09:59:53.401Z,79616.05
2019-02-14T10:02:25.710Z,79609.97
2019-02-14T10:08:18.005Z,79585.66
2019-02-14T10:10:48.412Z,79584.64
2019-02-14T10:13:19.010Z,79575.53
2019-02-14T10:18:31.058Z,79559.32
2019-02-14T10:21:59.752Z,79550.20
2019-02-14T10:27:38.380Z,79532.98
2019-02-14T10:30:15.075Z,79524.88
2019-02-14T10:32:45.466Z,79513.73
2019-02-14T10:35:27.946Z,79503.61
2019-02-14T10:41:13.664Z,79477.27
2019-02-14T10:46:46.491Z,79461.06
2019-02-14T10:49:36.128Z,79441.81
2019-02-14T10:52:19.835Z,79418.52
2019-02-14T10:54:50.257Z,79397.25
2019-02-14T10:57:20.754Z,79383.06
2019-02-14T11:08:31.322Z,79369.90
2019-02-14T11:11:11.332Z,79366.86
2019-02-14T11:16:44.355Z,79362.81
2019-02-14T11:19:20.026Z,79362.81
2019-02-14T11:21:50.766Z,79350.66
2019-02-14T11:24:40.034Z,79345.59
2019-02-14T11:30:06.024Z,79310.14
2019-02-14T11:32:36.483Z,79302.03
2019-02-14T11:35:19.211Z,79297.98
2019-02-14T11:37:50.052Z,79279.75
2019-02-14T11:40:20.892Z,79267.59
2019-02-14T11:42:51.314Z,79258.48
2019-02-14T11:45:21.942Z,79217.97
2019-02-14T11:48:12.854Z,79218.98
2019-02-14T11:50:54.663Z,79198.72
2019-02-14T11:53:25.339Z,79172.39
2019-02-14T11:55:57.334Z,79148.08
2019-02-14T12:04:25.425Z,79094.39
2019-02-14T12:10:25.972Z,79059.96
2019-02-14T12:12:56.444Z,79030.59
2019-02-14T12:15:26.874Z,79007.30
2019-02-14T12:24:04.004Z,78912.09
2019-02-14T12:42:07.126Z,78499.91
2019-02-14T12:44:40.030Z,78468.52
2019-02-14T12:53:30.853Z,78475.61
2019-02-14T12:59:05.038Z,78414.84
2019-02-14T13:01:37.894Z,78362.19
2019-02-14T13:04:08.621Z,78338.91
2019-02-14T13:06:38.989Z,78365.23
2019-02-14T13:09:19.502Z,78357.13
2019-02-14T13:12:20.870Z,78349.03
2019-02-14T13:14:51.436Z,78341.94
2019-02-14T13:17:21.904Z,78304.47
2019-02-14T13:29:00.426Z,78281.19
2019-02-14T13:34:12.358Z,78128.28
2019-02-14T13:39:45.500Z,78053.36
2019-02-14T13:45:25.745Z,77938.94
2019-02-14T13:47:56.255Z,77918.69
2019-02-14T13:50:26.746Z,77929.83
2019-02-14T13:55:59.670Z,77896.41
2019-02-14T13:58:30.159Z,77860.98
2019-02-14T14:04:04.662Z,77878.19
2019-02-14T14:09:16.968Z,78026.02
2019-02-14T14:11:47.430Z,78056.39
2019-02-14T14:14:17.820Z,78114.11
2019-02-14T14:16:48.486Z,78157.65
2019-02-14T14:19:19.156Z,78220.43
2019-02-14T14:21:49.625Z,78258.91
2019-02-14T14:24:20.041Z,78291.31
2019-02-14T14:26:52.625Z,78322.70
2019-02-14T14:29:28.744Z,78369.28
2019-02-14T14:35:14.262Z,78411.81
2019-02-14T14:37:44.808Z,78433.08
2019-02-14T14:46:35.224Z,78471.56
2019-02-14T14:49:05.674Z,78484.72
2019-02-14T14:54:25.706Z,78508.02
2019-02-14T14:57:17.090Z,78515.10
2019-02-14T15:03:09.560Z,78516.11
2019-02-14T15:05:40.233Z,78517.13
2019-02-14T15:08:31.194Z,78530.30
2019-02-14T15:11:03.193Z,78536.37
2019-02-14T15:13:35.875Z,78540.42
2019-02-14T15:16:06.924Z,78544.47
2019-02-14T15:18:56.672Z,78549.53
2019-02-14T15:21:47.528Z,78552.57
2019-02-14T15:27:39.617Z,78570.80
2019-02-14T15:30:30.778Z,78573.84
2019-02-14T15:33:01.639Z,78580.92
2019-02-14T15:35:34.291Z,78576.88
2019-02-14T15:38:05.050Z,78587.00
2019-02-14T15:40:42.302Z,78587.00
2019-02-14T15:43:12.721Z,78584.98
2019-02-14T15:45:43.679Z,78585.98
2019-02-14T15:48:26.392Z,78580.92
2019-02-14T15:51:17.642Z,78579.91
2019-02-14T15:59:43.494Z,78599.16
2019-02-14T16:02:33.163Z,78605.23
2019-02-14T16:05:19.092Z,78615.36
2019-02-14T16:11:14.415Z,78619.41
2019-02-14T16:23:20.119Z,78664.98
2019-02-14T16:25:51.971Z,78671.05
2019-02-14T16:29:02.084Z,78678.14
2019-02-14T16:31:46.679Z,78686.25
2019-02-14T16:37:00.603Z,78696.38
2019-02-14T16:39:31.167Z,78704.47
2019-02-14T16:42:42.177Z,78718.66
2019-02-14T16:45:20.211Z,78724.73
2019-02-14T16:50:46.282Z,78734.86
2019-02-14T16:53:37.282Z,78739.92
2019-02-14T16:59:10.233Z,78750.05
2019-02-14T17:04:44.050Z,78771.31
2019-02-14T17:15:59.298Z,78766.25
2019-02-14T17:18:48.905Z,78771.31
2019-02-14T17:21:19.834Z,78775.37
2019-02-14T17:23:50.252Z,78775.37
2019-02-14T17:26:20.804Z,78782.45
2019-02-14T17:28:51.545Z,78783.47
2019-02-14T17:31:40.977Z,78787.52
2019-02-14T17:34:11.462Z,78799.67
2019-02-14T17:36:42.271Z,78804.73
2019-02-14T17:39:40.926Z,78823.98
2019-02-14T17:42:11.495Z,78821.95
2019-02-14T17:50:28.714Z,78838.16
2019-02-14T17:53:19.689Z,78837.14
2019-02-14T17:56:09.198Z,78842.20
2019-02-14T17:58:45.597Z,78848.28
2019-02-14T18:01:15.984Z,78851.33
2019-02-14T18:03:59.341Z,78859.42
2019-02-14T18:12:20.278Z,78889.81
2019-02-14T18:15:49.985Z,78886.77
2019-02-14T18:21:06.821Z,78902.97
2019-02-14T18:23:38.687Z,78913.10
2019-02-14T18:26:09.259Z,78921.20
2019-02-14T18:31:45.562Z,78926.27
2019-02-14T18:40:02.515Z,78935.38
2019-02-14T18:42:33.059Z,78943.48
2019-02-14T18:45:04.078Z,78958.68
2019-02-14T18:47:39.641Z,78966.78
2019-02-14T18:53:02.813Z,78981.97
2019-02-14T18:55:33.496Z,78990.08
2019-02-14T19:01:28.846Z,78994.13
2019-02-14T19:03:59.420Z,78997.17
2019-02-14T19:06:29.757Z,78999.19
2019-02-14T19:09:00.445Z,79005.27
2019-02-14T19:14:33.412Z,79013.38
2019-02-14T19:17:03.868Z,79010.33
2019-02-14T19:19:34.366Z,79020.46
2019-02-14T19:22:26.025Z,79030.59
2019-02-14T19:25:19.413Z,79033.63
2019-02-14T19:28:01.197Z,79033.63
2019-02-14T19:30:31.566Z,79039.70
2019-02-14T19:33:06.042Z,79045.78
2019-02-14T19:35:36.570Z,79050.84
2019-02-14T19:38:28.891Z,79057.94
2019-02-14T19:41:25.115Z,79057.94
2019-02-14T19:47:02.503Z,79052.88
2019-02-14T19:49:33.128Z,79053.88
2019-02-14T19:54:47.999Z,79065.02
2019-02-14T19:57:18.662Z,79072.11
2019-02-14T19:59:49.108Z,79072.11
2019-02-14T20:02:38.688Z,79073.13
2019-02-14T20:05:48.988Z,79081.23
2019-02-14T20:08:31.084Z,79086.30
2019-02-14T20:11:01.976Z,79090.34
2019-02-14T20:13:35.459Z,79094.39
2019-02-14T20:16:17.374Z,79096.42
2019-02-14T20:18:48.025Z,79099.46
2019-02-14T20:27:09.893Z,79112.63
2019-02-14T20:29:40.400Z,79116.68
2019-02-14T20:32:11.463Z,79121.74
2019-02-14T20:35:02.453Z,79125.80
2019-02-14T20:37:32.864Z,79129.84
2019-02-14T20:42:44.124Z,79133.89
2019-02-14T20:45:34.414Z,79139.98
2019-02-14T20:50:45.009Z,79151.12
2019-02-14T20:53:34.448Z,79152.13
2019-02-14T20:59:07.448Z,79160.23
2019-02-14T21:01:38.219Z,79165.30
2019-02-14T21:04:08.714Z,79167.33
2019-02-14T21:15:46.984Z,79182.52
2019-02-14T21:18:17.757Z,79193.66
2019-02-14T21:21:07.294Z,79197.70
2019-02-14T21:23:49.165Z,79211.89
2019-02-14T21:26:20.143Z,79214.92
2019-02-14T21:31:52.751Z,79228.09
2019-02-14T21:34:43.801Z,79236.20
2019-02-14T21:37:14.340Z,79236.20
2019-02-14T21:40:05.850Z,79239.23
2019-02-14T21:42:43.093Z,79238.22
2019-02-14T21:48:18.821Z,79257.47
2019-02-14T21:51:10.267Z,79262.53
2019-02-14T21:56:44.204Z,79267.59
2019-02-14T21:59:35.219Z,79264.55
2019-02-14T22:02:16.942Z,79272.66
2019-02-14T22:10:35.436Z,79274.69
2019-02-14T22:19:11.946Z,79279.75
2019-02-14T22:22:41.233Z,79275.70
2019-02-14T22:25:49.550Z,79281.78
2019-02-14T22:35:40.382Z,79284.81
2019-02-14T22:38:31.171Z,79294.94
2019-02-14T22:41:22.054Z,79299.00
2019-02-14T22:46:55.853Z,79306.09
2019-02-14T22:49:27.972Z,79311.16
2019-02-14T22:52:09.471Z,79319.25
2019-02-14T22:54:39.935Z,79324.31
2019-02-14T22:57:17.269Z,79331.41
2019-02-14T22:59:49.243Z,79332.42
2019-02-14T23:05:42.730Z,79346.61
2019-02-14T23:08:25.851Z,79348.63
2019-02-14T23:10:56.756Z,79353.69
2019-02-14T23:13:27.402Z,79365.84
2019-02-14T23:19:02.704Z,79369.90
2019-02-14T23:30:33.116Z,79379.02
2019-02-14T23:33:03.573Z,79379.02
2019-02-14T23:35:34.060Z,79376.99
2019-02-14T23:38:04.712Z,79379.02
2019-02-14T23:40:55.599Z,79387.13
2019-02-14T23:43:25.976Z,79384.08
2019-02-14T23:45:56.645Z,79384.08
2019-02-14T23:48:26.971Z,79386.11
2019-02-14T23:51:16.393Z,79385.09
2019-02-14T23:54:07.082Z,79385.09
2019-02-14T23:59:38.320Z,79383.06
